DLH561 FNBJ-EDDF
Flight info
| Callsign | DLH561 |
|---|---|
| Flight time | N/A |
| Altitude | 36000 |
| Route | VNA UR526 LIKAD UY339 MESIN UG861 DLA/N0473F380 UA604 AS UR978 BOD/N0468F390 UG362 EBA/N0469F380 UG869 BAN/N0470F400 UG869 MAKEB UM858 DOPEL DCT DEC DCT UPDUT DCT CORSI DCT OKROK DCT AKUTI DCT TORTU DCT ERTEV DCT PEPAG DCT ABESI DCT LADOL T163 EMPAX EMPAX5B |
| Aircraft | A346/H-SDE2E3FGHIJ3J4J5M1P2RWXYZ/LB1D1 |
Departure
| Time | 2026-04-17 07:03 |
|---|---|
| Airport | Dr. Antonio Agostinho Neto International Airport (FNBJ) |
Arrival
| Time | N/A |
|---|---|
| Airport | Frankfurt Main Airport (EDDF) |
| Time | Latitude | Longitude | Altitude | Speed | Heading |
|---|---|---|---|---|---|
| 2026-04-17 06:33 | -9.03858 | 13.50671 | 531 ft | 0 kts | 147° |
| 2026-04-17 06:58 | -9.03859 | 13.50671 | 525 ft | 0 kts | 147° |
| 2026-04-17 06:58 | -9.03861 | 13.50672 | 530 ft | 1 kts | 164° |
| 2026-04-17 06:58 | -9.03881 | 13.50656 | 530 ft | 10 kts | 245° |
| 2026-04-17 06:59 | -9.03909 | 13.50583 | 530 ft | 12 kts | 249° |
| 2026-04-17 06:59 | -9.03941 | 13.50497 | 530 ft | 14 kts | 250° |
| 2026-04-17 06:59 | -9.03914 | 13.50444 | 531 ft | 10 kts | 324° |
| 2026-04-17 06:59 | -9.03854 | 13.50400 | 531 ft | 11 kts | 324° |
| 2026-04-17 07:00 | -9.03791 | 13.50355 | 533 ft | 11 kts | 324° |
| 2026-04-17 07:00 | -9.03734 | 13.50314 | 536 ft | 9 kts | 324° |
| 2026-04-17 07:00 | -9.03687 | 13.50279 | 538 ft | 8 kts | 324° |
| 2026-04-17 07:00 | -9.03672 | 13.50236 | 537 ft | 8 kts | 232° |
| 2026-04-17 07:01 | -9.03674 | 13.50233 | 537 ft | 0 kts | 232° |
| 2026-04-17 07:01 | -9.03675 | 13.50232 | 537 ft | 0 kts | 232° |
| 2026-04-17 07:02 | -9.03676 | 13.50231 | 537 ft | 1 kts | 232° |
| 2026-04-17 07:02 | -9.03771 | 13.50107 | 538 ft | 52 kts | 232° |
| 2026-04-17 07:02 | -9.04116 | 13.49643 | 545 ft | 111 kts | 232° |
| 2026-04-17 07:02 | -9.04689 | 13.48873 | 541 ft | 161 kts | 233° |
| 2026-04-17 07:03 | -9.05445 | 13.47849 | 607 ft | 197 kts | 231° |
| 2026-04-17 07:03 | -9.06292 | 13.46689 | 947 ft | 211 kts | 230° |
| 2026-04-17 07:03 | -9.07196 | 13.45488 | 1588 ft | 216 kts | 230° |
| 2026-04-17 07:03 | -9.08120 | 13.44278 | 2289 ft | 218 kts | 230° |
| 2026-04-17 07:04 | -9.09058 | 13.43057 | 2946 ft | 223 kts | 230° |
| 2026-04-17 07:04 | -9.09796 | 13.41618 | 3311 ft | 244 kts | 259° |
| 2026-04-17 07:04 | -9.09556 | 13.39867 | 3604 ft | 266 kts | 298° |
| 2026-04-17 07:04 | -9.08274 | 13.38479 | 4015 ft | 278 kts | 330° |
| 2026-04-17 07:05 | -9.06536 | 13.37607 | 4748 ft | 279 kts | 336° |
| 2026-04-17 07:05 | -9.04772 | 13.36779 | 5480 ft | 281 kts | 336° |
| 2026-04-17 07:05 | -9.03019 | 13.35881 | 6223 ft | 284 kts | 333° |
| 2026-04-17 07:05 | -9.01277 | 13.34913 | 6913 ft | 286 kts | 332° |
| 2026-04-17 07:06 | -8.99546 | 13.33903 | 7566 ft | 289 kts | 331° |
| 2026-04-17 07:06 | -8.97804 | 13.32859 | 8189 ft | 292 kts | 331° |
| 2026-04-17 07:06 | -8.96054 | 13.31795 | 8847 ft | 295 kts | 330° |
| 2026-04-17 07:06 | -8.94291 | 13.30716 | 9505 ft | 297 kts | 330° |
| 2026-04-17 07:07 | -8.92514 | 13.29626 | 10107 ft | 301 kts | 330° |
| 2026-04-17 07:07 | -8.90684 | 13.28503 | 10466 ft | 315 kts | 330° |
| 2026-04-17 07:07 | -8.88763 | 13.27327 | 10735 ft | 331 kts | 330° |
| 2026-04-17 07:07 | -8.86746 | 13.26092 | 11002 ft | 346 kts | 330° |
| 2026-04-17 07:08 | -8.84597 | 13.24884 | 11261 ft | 361 kts | 334° |
| 2026-04-17 07:08 | -8.82279 | 13.23787 | 11518 ft | 375 kts | 338° |
| 2026-04-17 07:08 | -8.79858 | 13.22762 | 11788 ft | 388 kts | 339° |
| 2026-04-17 07:08 | -8.77335 | 13.21711 | 12285 ft | 394 kts | 339° |
| 2026-04-17 07:09 | -8.74793 | 13.20652 | 12925 ft | 397 kts | 339° |
| 2026-04-17 07:09 | -8.72233 | 13.19583 | 13530 ft | 399 kts | 339° |
| 2026-04-17 07:09 | -8.69656 | 13.18506 | 14048 ft | 403 kts | 339° |
| 2026-04-17 07:09 | -8.67058 | 13.17420 | 14550 ft | 406 kts | 338° |
| 2026-04-17 07:10 | -8.64438 | 13.16327 | 15082 ft | 408 kts | 338° |
| 2026-04-17 07:10 | -8.61803 | 13.15227 | 15603 ft | 412 kts | 339° |
| 2026-04-17 07:10 | -8.59145 | 13.14116 | 16110 ft | 415 kts | 338° |
| 2026-04-17 07:10 | -8.56470 | 13.13000 | 16636 ft | 418 kts | 338° |
| 2026-04-17 07:11 | -8.53771 | 13.11874 | 17128 ft | 421 kts | 338° |
| 2026-04-17 07:11 | -8.51054 | 13.10739 | 17619 ft | 424 kts | 338° |
| 2026-04-17 07:11 | -8.48316 | 13.09593 | 18111 ft | 427 kts | 338° |
| 2026-04-17 07:11 | -8.45560 | 13.08439 | 18512 ft | 431 kts | 338° |
| 2026-04-17 07:12 | -8.42780 | 13.07278 | 18901 ft | 433 kts | 338° |
| 2026-04-17 07:12 | -8.39985 | 13.06113 | 19353 ft | 436 kts | 338° |
| 2026-04-17 07:12 | -8.37171 | 13.04939 | 19766 ft | 439 kts | 338° |
| 2026-04-17 07:12 | -8.34343 | 13.03759 | 20170 ft | 441 kts | 338° |
| 2026-04-17 07:13 | -8.31494 | 13.02571 | 20571 ft | 444 kts | 338° |
| 2026-04-17 07:13 | -8.28633 | 13.01377 | 20971 ft | 447 kts | 338° |
| 2026-04-17 07:13 | -8.25750 | 13.00174 | 21366 ft | 449 kts | 338° |
| 2026-04-17 07:13 | -8.22855 | 12.98967 | 21748 ft | 452 kts | 338° |
| 2026-04-17 07:14 | -8.19939 | 12.97751 | 22139 ft | 454 kts | 338° |
| 2026-04-17 07:14 | -8.17011 | 12.96529 | 22513 ft | 457 kts | 338° |
| 2026-04-17 07:14 | -8.14062 | 12.95299 | 22886 ft | 459 kts | 338° |
| 2026-04-17 07:14 | -8.11102 | 12.94063 | 23258 ft | 462 kts | 338° |
| 2026-04-17 07:15 | -8.08123 | 12.92821 | 23604 ft | 464 kts | 338° |
| 2026-04-17 07:15 | -8.05134 | 12.91576 | 23905 ft | 466 kts | 338° |
| 2026-04-17 07:15 | -8.02127 | 12.90324 | 24212 ft | 468 kts | 338° |
| 2026-04-17 07:15 | -7.99114 | 12.89071 | 24518 ft | 470 kts | 338° |
| 2026-04-17 07:16 | -7.96081 | 12.87807 | 24819 ft | 472 kts | 338° |
| 2026-04-17 07:16 | -7.93038 | 12.86540 | 25124 ft | 474 kts | 338° |
| 2026-04-17 07:16 | -7.89978 | 12.85266 | 25418 ft | 476 kts | 338° |
| 2026-04-17 07:16 | -7.86909 | 12.83988 | 25721 ft | 478 kts | 338° |
| 2026-04-17 07:17 | -7.83827 | 12.82705 | 26009 ft | 481 kts | 338° |
| 2026-04-17 07:17 | -7.80727 | 12.81415 | 26307 ft | 482 kts | 338° |
| 2026-04-17 07:17 | -7.74493 | 12.78820 | 26872 ft | 487 kts | 338° |
| 2026-04-17 07:18 | -7.71358 | 12.77516 | 27148 ft | 489 kts | 338° |
| 2026-04-17 07:18 | -7.68206 | 12.76204 | 27427 ft | 491 kts | 338° |
| 2026-04-17 07:18 | -7.65039 | 12.74886 | 27670 ft | 494 kts | 338° |
| 2026-04-17 07:18 | -7.61857 | 12.73563 | 28023 ft | 494 kts | 338° |
| 2026-04-17 07:19 | -7.58686 | 12.72245 | 28443 ft | 493 kts | 338° |
| 2026-04-17 07:19 | -7.55517 | 12.70927 | 28855 ft | 492 kts | 338° |
| 2026-04-17 07:19 | -7.52399 | 12.69631 | 29256 ft | 491 kts | 338° |
| 2026-04-17 07:19 | -7.49201 | 12.68301 | 29655 ft | 490 kts | 338° |
| 2026-04-17 07:20 | -7.46094 | 12.67010 | 30001 ft | 490 kts | 338° |
| 2026-04-17 07:20 | -7.42941 | 12.65699 | 30323 ft | 489 kts | 338° |
| 2026-04-17 07:20 | -7.39800 | 12.64395 | 30704 ft | 487 kts | 338° |
| 2026-04-17 07:20 | -7.36670 | 12.63095 | 31100 ft | 485 kts | 337° |
| 2026-04-17 07:21 | -7.33555 | 12.61802 | 31473 ft | 484 kts | 337° |
| 2026-04-17 07:21 | -7.30444 | 12.60509 | 31804 ft | 483 kts | 337° |
| 2026-04-17 07:21 | -7.27343 | 12.59221 | 32150 ft | 482 kts | 337° |
| 2026-04-17 07:21 | -7.24243 | 12.57935 | 32499 ft | 481 kts | 337° |
| 2026-04-17 07:22 | -7.21152 | 12.56651 | 32814 ft | 480 kts | 337° |
| 2026-04-17 07:22 | -7.18065 | 12.55367 | 33136 ft | 479 kts | 337° |
| 2026-04-17 07:22 | -7.14985 | 12.54089 | 33460 ft | 479 kts | 337° |
| 2026-04-17 07:22 | -7.11865 | 12.52792 | 33812 ft | 478 kts | 336° |
| 2026-04-17 07:23 | -7.08774 | 12.51505 | 34110 ft | 477 kts | 337° |
| 2026-04-17 07:23 | -7.05711 | 12.50232 | 34404 ft | 476 kts | 337° |
| 2026-04-17 07:23 | -7.02639 | 12.48960 | 34686 ft | 476 kts | 336° |